Upstream stations:
Downstream station:
SHEF ID: FLRK1 COTTONWOOD R NR FLORENCE, KS
STATION TYPE:
Regulating: Stage = 21.00, Flow = 9471
PRECIP STAGE STAGE(2) RIV-FLOW BAT-LOAD
in ft ft cfs volt
Ccp-Rev Ccp-Rev Ccp-Rev Ccp-Rev Ccp-Rev
(US/Central)
11/19 00:00 0.00 3.07 2.90 75 12.77
11/19 01:00 0.00 3.07 2.91 75 12.71
11/19 02:00 0.00 3.07 2.91 75 12.71
11/19 03:00 0.00 3.07 2.91 75 12.65
11/19 04:00 0.00 3.07 2.91 75 12.60
11/19 05:00 0.00 3.07 2.91 75 12.60
11/19 06:00 0.00 3.07 2.91 75 12.60
11/19 07:00 0.00 3.07 2.91 75 12.60
11/19 08:00 0.00 3.06 2.91 72 12.60
11/19 09:00 0.00 3.05 2.91 69 13.00
11/19 10:00 ---- 3.04 2.91 67 ----
11/19 11:00 0.00 3.01 2.92 59 13.53
11/19 12:00 0.00 3.02 2.91 62 13.53
11/19 13:00 0.00 3.04 2.92 67 13.59
11/19 14:00 0.00 3.04 2.91 67 13.48
11/19 15:00 0.00 3.05 2.91 69 13.53
11/19 16:00 0.00 3.05 2.91 69 13.42
11/19 17:00 0.00 3.05 2.91 69 13.42
11/19 18:00 0.00 3.05 2.91 69 13.07
11/19 19:00 0.00 3.06 2.91 72 13.00
11/19 20:00 0.00 3.05 2.91 69 12.95
11/19 21:00 0.00 3.05 2.91 69 12.95
11/19 22:00 0.00 3.05 2.91 69 ----
11/19 23:00 0.00 3.06 2.91 72 12.89